sensor_id;sensor_type;location;lat;lon;timestamp;P1;durP1;ratioP1;P2;durP2;ratioP2
57025;SDS011;43961;52.940;6.834;2024-01-30T00:01:50;133.52;;;80.03;;
57025;SDS011;43961;52.940;6.834;2024-01-30T00:04:16;127.97;;;79.22;;
57025;SDS011;43961;52.940;6.834;2024-01-30T00:06:42;138.68;;;83.10;;
57025;SDS011;43961;52.940;6.834;2024-01-30T00:09:08;128.65;;;82.97;;
57025;SDS011;43961;52.940;6.834;2024-01-30T00:11:35;159.95;;;91.68;;
57025;SDS011;43961;52.940;6.834;2024-01-30T00:14:01;130.05;;;81.43;;
57025;SDS011;43961;52.940;6.834;2024-01-30T00:16:28;138.68;;;83.50;;
57025;SDS011;43961;52.940;6.834;2024-01-30T00:18:54;154.75;;;89.88;;
57025;SDS011;43961;52.940;6.834;2024-01-30T00:21:20;138.60;;;84.47;;
57025;SDS011;43961;52.940;6.834;2024-01-30T00:23:46;136.10;;;83.05;;
57025;SDS011;43961;52.940;6.834;2024-01-30T00:26:11;151.32;;;90.22;;
57025;SDS011;43961;52.940;6.834;2024-01-30T00:28:38;136.45;;;83.43;;
57025;SDS011;43961;52.940;6.834;2024-01-30T00:31:04;144.40;;;82.28;;
57025;SDS011;43961;52.940;6.834;2024-01-30T00:33:29;154.63;;;84.15;;
57025;SDS011;43961;52.940;6.834;2024-01-30T00:35:55;153.13;;;90.93;;
57025;SDS011;43961;52.940;6.834;2024-01-30T00:38:21;141.75;;;84.28;;
57025;SDS011;43961;52.940;6.834;2024-01-30T00:40:47;134.57;;;86.10;;
57025;SDS011;43961;52.940;6.834;2024-01-30T00:43:12;135.70;;;86.35;;
57025;SDS011;43961;52.940;6.834;2024-01-30T00:45:38;136.25;;;81.25;;
57025;SDS011;43961;52.940;6.834;2024-01-30T00:48:03;133.27;;;83.00;;
57025;SDS011;43961;52.940;6.834;2024-01-30T00:50:29;137.45;;;81.70;;
57025;SDS011;43961;52.940;6.834;2024-01-30T00:52:55;129.23;;;79.47;;
57025;SDS011;43961;52.940;6.834;2024-01-30T00:55:21;147.95;;;89.28;;
57025;SDS011;43961;52.940;6.834;2024-01-30T00:57:47;148.65;;;89.45;;
57025;SDS011;43961;52.940;6.834;2024-01-30T01:00:13;132.32;;;82.57;;
57025;SDS011;43961;52.940;6.834;2024-01-30T01:02:42;148.68;;;86.07;;
57025;SDS011;43961;52.940;6.834;2024-01-30T01:05:08;130.02;;;80.63;;
57025;SDS011;43961;52.940;6.834;2024-01-30T01:07:33;126.30;;;80.63;;
57025;SDS011;43961;52.940;6.834;2024-01-30T01:09:59;131.38;;;81.72;;
57025;SDS011;43961;52.940;6.834;2024-01-30T01:12:25;115.50;;;75.50;;
57025;SDS011;43961;52.940;6.834;2024-01-30T01:14:50;122.53;;;74.75;;
57025;SDS011;43961;52.940;6.834;2024-01-30T01:17:17;120.78;;;75.75;;
57025;SDS011;43961;52.940;6.834;2024-01-30T01:19:43;125.63;;;76.47;;
57025;SDS011;43961;52.940;6.834;2024-01-30T01:22:09;117.10;;;74.47;;
57025;SDS011;43961;52.940;6.834;2024-01-30T01:24:36;117.68;;;76.03;;
57025;SDS011;43961;52.940;6.834;2024-01-30T01:27:01;125.53;;;78.47;;
57025;SDS011;43961;52.940;6.834;2024-01-30T01:29:27;132.75;;;78.38;;
57025;SDS011;43961;52.940;6.834;2024-01-30T01:31:56;130.30;;;80.40;;
57025;SDS011;43961;52.940;6.834;2024-01-30T01:34:24;129.65;;;79.28;;
57025;SDS011;43961;52.940;6.834;2024-01-30T01:36:50;116.30;;;74.30;;
57025;SDS011;43961;52.940;6.834;2024-01-30T01:39:16;122.40;;;76.40;;
57025;SDS011;43961;52.940;6.834;2024-01-30T01:41:42;124.35;;;76.30;;
57025;SDS011;43961;52.940;6.834;2024-01-30T01:44:08;117.15;;;73.97;;
57025;SDS011;43961;52.940;6.834;2024-01-30T01:46:34;155.02;;;90.00;;
57025;SDS011;43961;52.940;6.834;2024-01-30T01:49:00;121.07;;;76.68;;
57025;SDS011;43961;52.940;6.834;2024-01-30T01:51:28;125.13;;;77.80;;
57025;SDS011;43961;52.940;6.834;2024-01-30T01:53:55;144.55;;;86.72;;
57025;SDS011;43961;52.940;6.834;2024-01-30T01:56:22;113.32;;;74.82;;
57025;SDS011;43961;52.940;6.834;2024-01-30T01:58:49;126.85;;;76.93;;
57025;SDS011;43961;52.940;6.834;2024-01-30T02:01:16;128.40;;;74.18;;
57025;SDS011;43961;52.940;6.834;2024-01-30T02:06:10;116.60;;;69.50;;
57025;SDS011;43961;52.940;6.834;2024-01-30T02:08:37;107.65;;;71.18;;
57025;SDS011;43961;52.940;6.834;2024-01-30T02:11:03;116.25;;;76.63;;
57025;SDS011;43961;52.940;6.834;2024-01-30T02:13:29;125.43;;;75.50;;
57025;SDS011;43961;52.940;6.834;2024-01-30T02:15:55;133.07;;;79.07;;
57025;SDS011;43961;52.940;6.834;2024-01-30T02:18:20;121.82;;;77.28;;
57025;SDS011;43961;52.940;6.834;2024-01-30T02:20:46;119.93;;;71.75;;
57025;SDS011;43961;52.940;6.834;2024-01-30T02:23:12;125.30;;;74.78;;
57025;SDS011;43961;52.940;6.834;2024-01-30T02:25:41;120.05;;;72.18;;
57025;SDS011;43961;52.940;6.834;2024-01-30T02:28:12;134.13;;;75.55;;
57025;SDS011;43961;52.940;6.834;2024-01-30T02:30:46;129.55;;;81.97;;
57025;SDS011;43961;52.940;6.834;2024-01-30T02:33:12;135.75;;;76.20;;
57025;SDS011;43961;52.940;6.834;2024-01-30T02:35:38;131.18;;;80.78;;
57025;SDS011;43961;52.940;6.834;2024-01-30T02:38:04;131.07;;;80.45;;
57025;SDS011;43961;52.940;6.834;2024-01-30T02:40:30;131.60;;;75.32;;
57025;SDS011;43961;52.940;6.834;2024-01-30T02:42:56;131.10;;;79.25;;
57025;SDS011;43961;52.940;6.834;2024-01-30T02:45:23;122.75;;;74.82;;
57025;SDS011;43961;52.940;6.834;2024-01-30T02:47:48;136.35;;;79.75;;
57025;SDS011;43961;52.940;6.834;2024-01-30T02:50:14;128.52;;;79.40;;
57025;SDS011;43961;52.940;6.834;2024-01-30T02:52:40;122.05;;;75.75;;
57025;SDS011;43961;52.940;6.834;2024-01-30T02:55:06;131.02;;;76.55;;
57025;SDS011;43961;52.940;6.834;2024-01-30T02:57:32;126.80;;;74.60;;
57025;SDS011;43961;52.940;6.834;2024-01-30T02:59:59;132.60;;;79.70;;
57025;SDS011;43961;52.940;6.834;2024-01-30T03:02:25;129.10;;;74.82;;
57025;SDS011;43961;52.940;6.834;2024-01-30T03:04:50;125.63;;;76.25;;
57025;SDS011;43961;52.940;6.834;2024-01-30T03:07:16;130.00;;;76.57;;
57025;SDS011;43961;52.940;6.834;2024-01-30T03:09:41;152.00;;;85.07;;
57025;SDS011;43961;52.940;6.834;2024-01-30T03:12:09;143.15;;;80.00;;
57025;SDS011;43961;52.940;6.834;2024-01-30T03:14:34;126.53;;;75.10;;
57025;SDS011;43961;52.940;6.834;2024-01-30T03:17:00;131.48;;;76.90;;
57025;SDS011;43961;52.940;6.834;2024-01-30T03:19:25;122.43;;;73.20;;
57025;SDS011;43961;52.940;6.834;2024-01-30T03:21:51;135.93;;;80.60;;
57025;SDS011;43961;52.940;6.834;2024-01-30T03:24:17;136.85;;;78.43;;
57025;SDS011;43961;52.940;6.834;2024-01-30T03:26:43;142.00;;;82.65;;
57025;SDS011;43961;52.940;6.834;2024-01-30T03:29:09;151.98;;;76.65;;
57025;SDS011;43961;52.940;6.834;2024-01-30T03:31:35;128.60;;;75.35;;
57025;SDS011;43961;52.940;6.834;2024-01-30T03:34:02;126.80;;;76.40;;
57025;SDS011;43961;52.940;6.834;2024-01-30T03:36:28;142.32;;;78.03;;
57025;SDS011;43961;52.940;6.834;2024-01-30T03:38:53;132.93;;;79.47;;
57025;SDS011;43961;52.940;6.834;2024-01-30T03:41:19;129.55;;;77.10;;
57025;SDS011;43961;52.940;6.834;2024-01-30T03:43:45;128.75;;;78.28;;
57025;SDS011;43961;52.940;6.834;2024-01-30T03:46:11;119.68;;;69.10;;
57025;SDS011;43961;52.940;6.834;2024-01-30T03:48:37;129.65;;;74.55;;
57025;SDS011;43961;52.940;6.834;2024-01-30T03:51:04;127.38;;;74.25;;
57025;SDS011;43961;52.940;6.834;2024-01-30T03:53:30;119.75;;;72.70;;
57025;SDS011;43961;52.940;6.834;2024-01-30T03:55:56;122.10;;;73.03;;
57025;SDS011;43961;52.940;6.834;2024-01-30T03:58:21;120.43;;;73.35;;
57025;SDS011;43961;52.940;6.834;2024-01-30T04:00:47;125.70;;;72.88;;
57025;SDS011;43961;52.940;6.834;2024-01-30T04:03:14;123.75;;;69.80;;
57025;SDS011;43961;52.940;6.834;2024-01-30T04:05:40;124.80;;;69.57;;
57025;SDS011;43961;52.940;6.834;2024-01-30T04:08:06;108.35;;;64.10;;
57025;SDS011;43961;52.940;6.834;2024-01-30T04:10:33;116.82;;;67.70;;
57025;SDS011;43961;52.940;6.834;2024-01-30T04:12:59;114.38;;;69.03;;
57025;SDS011;43961;52.940;6.834;2024-01-30T04:15:25;106.70;;;64.78;;
57025;SDS011;43961;52.940;6.834;2024-01-30T04:17:50;115.38;;;67.72;;
57025;SDS011;43961;52.940;6.834;2024-01-30T04:20:16;121.13;;;64.82;;
57025;SDS011;43961;52.940;6.834;2024-01-30T04:22:43;95.30;;;61.25;;
57025;SDS011;43961;52.940;6.834;2024-01-30T04:25:12;104.63;;;60.30;;
57025;SDS011;43961;52.940;6.834;2024-01-30T04:27:38;104.38;;;62.97;;
57025;SDS011;43961;52.940;6.834;2024-01-30T04:30:04;101.45;;;59.85;;
57025;SDS011;43961;52.940;6.834;2024-01-30T04:32:31;104.07;;;59.10;;
57025;SDS011;43961;52.940;6.834;2024-01-30T04:34:57;103.50;;;59.97;;
57025;SDS011;43961;52.940;6.834;2024-01-30T04:37:23;100.78;;;59.58;;
57025;SDS011;43961;52.940;6.834;2024-01-30T04:39:49;103.72;;;58.63;;
57025;SDS011;43961;52.940;6.834;2024-01-30T04:42:16;93.32;;;57.55;;
57025;SDS011;43961;52.940;6.834;2024-01-30T04:44:42;99.03;;;57.05;;
57025;SDS011;43961;52.940;6.834;2024-01-30T04:47:09;94.15;;;55.78;;
57025;SDS011;43961;52.940;6.834;2024-01-30T04:49:38;91.18;;;55.30;;
57025;SDS011;43961;52.940;6.834;2024-01-30T04:52:05;94.43;;;55.63;;
57025;SDS011;43961;52.940;6.834;2024-01-30T04:54:31;98.15;;;56.72;;
57025;SDS011;43961;52.940;6.834;2024-01-30T04:56:57;103.38;;;57.17;;
57025;SDS011;43961;52.940;6.834;2024-01-30T04:59:23;98.43;;;52.60;;
57025;SDS011;43961;52.940;6.834;2024-01-30T05:01:49;96.28;;;57.05;;
57025;SDS011;43961;52.940;6.834;2024-01-30T05:04:15;99.20;;;57.58;;
57025;SDS011;43961;52.940;6.834;2024-01-30T05:06:41;91.88;;;55.80;;
57025;SDS011;43961;52.940;6.834;2024-01-30T05:09:06;91.72;;;55.90;;
57025;SDS011;43961;52.940;6.834;2024-01-30T05:11:41;92.20;;;52.90;;
57025;SDS011;43961;52.940;6.834;2024-01-30T05:14:07;91.70;;;53.63;;
57025;SDS011;43961;52.940;6.834;2024-01-30T05:16:34;92.00;;;53.50;;
57025;SDS011;43961;52.940;6.834;2024-01-30T05:18:59;86.13;;;53.97;;
57025;SDS011;43961;52.940;6.834;2024-01-30T05:21:25;93.45;;;54.70;;
57025;SDS011;43961;52.940;6.834;2024-01-30T05:23:51;92.75;;;53.67;;
57025;SDS011;43961;52.940;6.834;2024-01-30T05:26:16;100.18;;;57.45;;
57025;SDS011;43961;52.940;6.834;2024-01-30T05:28:42;89.40;;;54.40;;
57025;SDS011;43961;52.940;6.834;2024-01-30T05:31:11;99.50;;;53.45;;
57025;SDS011;43961;52.940;6.834;2024-01-30T05:33:37;93.78;;;55.03;;
57025;SDS011;43961;52.940;6.834;2024-01-30T05:36:03;97.47;;;55.65;;
57025;SDS011;43961;52.940;6.834;2024-01-30T05:38:28;87.97;;;53.60;;
57025;SDS011;43961;52.940;6.834;2024-01-30T05:40:55;88.70;;;54.25;;
57025;SDS011;43961;52.940;6.834;2024-01-30T05:43:22;93.18;;;53.85;;
57025;SDS011;43961;52.940;6.834;2024-01-30T05:45:48;85.75;;;53.47;;
57025;SDS011;43961;52.940;6.834;2024-01-30T05:48:14;91.72;;;53.20;;
57025;SDS011;43961;52.940;6.834;2024-01-30T05:50:40;81.70;;;52.65;;
57025;SDS011;43961;52.940;6.834;2024-01-30T05:53:05;87.78;;;53.75;;
57025;SDS011;43961;52.940;6.834;2024-01-30T05:55:31;91.68;;;53.55;;
57025;SDS011;43961;52.940;6.834;2024-01-30T05:57:56;95.40;;;53.15;;
57025;SDS011;43961;52.940;6.834;2024-01-30T06:00:23;92.82;;;52.95;;
57025;SDS011;43961;52.940;6.834;2024-01-30T06:02:49;91.13;;;53.58;;
57025;SDS011;43961;52.940;6.834;2024-01-30T06:05:14;86.05;;;53.00;;
57025;SDS011;43961;52.940;6.834;2024-01-30T06:07:40;88.00;;;52.38;;
57025;SDS011;43961;52.940;6.834;2024-01-30T06:10:06;87.15;;;52.53;;
57025;SDS011;43961;52.940;6.834;2024-01-30T06:12:32;85.22;;;53.50;;
57025;SDS011;43961;52.940;6.834;2024-01-30T06:14:58;87.75;;;53.35;;
57025;SDS011;43961;52.940;6.834;2024-01-30T06:17:24;85.53;;;52.85;;
57025;SDS011;43961;52.940;6.834;2024-01-30T06:19:49;93.75;;;51.75;;
57025;SDS011;43961;52.940;6.834;2024-01-30T06:22:15;89.60;;;51.88;;
57025;SDS011;43961;52.940;6.834;2024-01-30T06:24:41;83.47;;;52.88;;
57025;SDS011;43961;52.940;6.834;2024-01-30T06:27:09;81.22;;;51.30;;
57025;SDS011;43961;52.940;6.834;2024-01-30T06:29:35;83.32;;;51.72;;
57025;SDS011;43961;52.940;6.834;2024-01-30T06:32:01;79.75;;;51.40;;
57025;SDS011;43961;52.940;6.834;2024-01-30T06:34:27;81.53;;;52.38;;
57025;SDS011;43961;52.940;6.834;2024-01-30T06:36:52;79.13;;;50.25;;
57025;SDS011;43961;52.940;6.834;2024-01-30T06:39:18;88.43;;;50.13;;
57025;SDS011;43961;52.940;6.834;2024-01-30T06:41:44;80.95;;;50.92;;
57025;SDS011;43961;52.940;6.834;2024-01-30T06:44:11;85.45;;;50.72;;
57025;SDS011;43961;52.940;6.834;2024-01-30T06:46:38;87.55;;;50.85;;
57025;SDS011;43961;52.940;6.834;2024-01-30T06:49:04;87.25;;;51.72;;
57025;SDS011;43961;52.940;6.834;2024-01-30T06:51:30;79.43;;;51.00;;
57025;SDS011;43961;52.940;6.834;2024-01-30T06:53:55;92.72;;;53.15;;
57025;SDS011;43961;52.940;6.834;2024-01-30T06:56:21;82.93;;;53.58;;
57025;SDS011;43961;52.940;6.834;2024-01-30T06:58:50;88.07;;;49.03;;
57025;SDS011;43961;52.940;6.834;2024-01-30T07:01:16;82.82;;;48.03;;
57025;SDS011;43961;52.940;6.834;2024-01-30T07:03:42;92.43;;;53.20;;
57025;SDS011;43961;52.940;6.834;2024-01-30T07:06:11;97.07;;;53.67;;
57025;SDS011;43961;52.940;6.834;2024-01-30T07:08:37;86.82;;;52.95;;
57025;SDS011;43961;52.940;6.834;2024-01-30T07:11:06;83.70;;;49.60;;
57025;SDS011;43961;52.940;6.834;2024-01-30T07:13:32;83.38;;;51.85;;
57025;SDS011;43961;52.940;6.834;2024-01-30T07:15:57;84.25;;;51.20;;
57025;SDS011;43961;52.940;6.834;2024-01-30T07:18:23;86.18;;;50.92;;
57025;SDS011;43961;52.940;6.834;2024-01-30T07:20:49;81.85;;;50.85;;
57025;SDS011;43961;52.940;6.834;2024-01-30T07:23:15;78.22;;;51.13;;
57025;SDS011;43961;52.940;6.834;2024-01-30T07:25:45;72.75;;;48.58;;
57025;SDS011;43961;52.940;6.834;2024-01-30T07:28:13;78.53;;;48.92;;
57025;SDS011;43961;52.940;6.834;2024-01-30T07:30:42;76.38;;;47.45;;
57025;SDS011;43961;52.940;6.834;2024-01-30T07:33:09;83.00;;;49.22;;
57025;SDS011;43961;52.940;6.834;2024-01-30T07:35:35;81.38;;;49.40;;
57025;SDS011;43961;52.940;6.834;2024-01-30T07:38:01;81.90;;;50.20;;
57025;SDS011;43961;52.940;6.834;2024-01-30T07:40:27;87.70;;;49.00;;
57025;SDS011;43961;52.940;6.834;2024-01-30T07:42:55;81.25;;;50.72;;
57025;SDS011;43961;52.940;6.834;2024-01-30T07:45:21;81.30;;;48.17;;
57025;SDS011;43961;52.940;6.834;2024-01-30T07:47:50;85.50;;;48.03;;
57025;SDS011;43961;52.940;6.834;2024-01-30T07:50:17;78.50;;;45.88;;
57025;SDS011;43961;52.940;6.834;2024-01-30T07:52:43;74.95;;;47.30;;
57025;SDS011;43961;52.940;6.834;2024-01-30T07:55:09;73.07;;;48.28;;
57025;SDS011;43961;52.940;6.834;2024-01-30T07:57:35;84.50;;;48.83;;
57025;SDS011;43961;52.940;6.834;2024-01-30T08:00:03;76.32;;;46.85;;
57025;SDS011;43961;52.940;6.834;2024-01-30T08:02:30;80.97;;;47.50;;
57025;SDS011;43961;52.940;6.834;2024-01-30T08:04:56;87.30;;;48.40;;
57025;SDS011;43961;52.940;6.834;2024-01-30T08:07:22;77.22;;;47.15;;
57025;SDS011;43961;52.940;6.834;2024-01-30T08:09:47;70.40;;;47.58;;
57025;SDS011;43961;52.940;6.834;2024-01-30T08:12:14;85.55;;;48.30;;
57025;SDS011;43961;52.940;6.834;2024-01-30T08:14:40;84.28;;;47.42;;
57025;SDS011;43961;52.940;6.834;2024-01-30T08:17:06;92.25;;;48.17;;
57025;SDS011;43961;52.940;6.834;2024-01-30T08:19:32;88.28;;;47.97;;
57025;SDS011;43961;52.940;6.834;2024-01-30T08:24:28;81.93;;;47.92;;
57025;SDS011;43961;52.940;6.834;2024-01-30T08:26:54;76.07;;;44.83;;
57025;SDS011;43961;52.940;6.834;2024-01-30T08:29:20;79.88;;;46.63;;
57025;SDS011;43961;52.940;6.834;2024-01-30T08:31:45;79.32;;;46.85;;
57025;SDS011;43961;52.940;6.834;2024-01-30T08:34:11;80.45;;;48.00;;
57025;SDS011;43961;52.940;6.834;2024-01-30T08:36:37;74.18;;;45.95;;
57025;SDS011;43961;52.940;6.834;2024-01-30T08:39:03;63.58;;;43.10;;
57025;SDS011;43961;52.940;6.834;2024-01-30T08:41:30;75.80;;;47.70;;
57025;SDS011;43961;52.940;6.834;2024-01-30T08:43:56;69.57;;;45.10;;
57025;SDS011;43961;52.940;6.834;2024-01-30T08:46:21;77.90;;;45.58;;
57025;SDS011;43961;52.940;6.834;2024-01-30T08:48:47;70.78;;;45.47;;
57025;SDS011;43961;52.940;6.834;2024-01-30T08:51:13;69.93;;;44.20;;
57025;SDS011;43961;52.940;6.834;2024-01-30T08:53:40;75.72;;;45.53;;
57025;SDS011;43961;52.940;6.834;2024-01-30T08:56:06;70.88;;;44.40;;
57025;SDS011;43961;52.940;6.834;2024-01-30T08:58:32;71.85;;;45.85;;
57025;SDS011;43961;52.940;6.834;2024-01-30T09:00:58;69.00;;;44.70;;
57025;SDS011;43961;52.940;6.834;2024-01-30T09:03:24;68.47;;;43.55;;
57025;SDS011;43961;52.940;6.834;2024-01-30T09:05:49;71.63;;;43.58;;
57025;SDS011;43961;52.940;6.834;2024-01-30T09:08:15;70.68;;;42.58;;
57025;SDS011;43961;52.940;6.834;2024-01-30T09:10:40;68.22;;;43.65;;
57025;SDS011;43961;52.940;6.834;2024-01-30T09:13:06;70.88;;;43.05;;
57025;SDS011;43961;52.940;6.834;2024-01-30T09:15:32;70.50;;;43.58;;
57025;SDS011;43961;52.940;6.834;2024-01-30T09:17:57;67.35;;;42.75;;
57025;SDS011;43961;52.940;6.834;2024-01-30T09:20:23;77.13;;;46.25;;
57025;SDS011;43961;52.940;6.834;2024-01-30T09:22:48;72.35;;;47.00;;
57025;SDS011;43961;52.940;6.834;2024-01-30T09:25:14;71.93;;;42.60;;
57025;SDS011;43961;52.940;6.834;2024-01-30T09:27:40;67.15;;;43.55;;
57025;SDS011;43961;52.940;6.834;2024-01-30T09:30:06;57.63;;;39.90;;
57025;SDS011;43961;52.940;6.834;2024-01-30T09:32:32;75.40;;;41.60;;
57025;SDS011;43961;52.940;6.834;2024-01-30T09:34:58;63.58;;;44.45;;
57025;SDS011;43961;52.940;6.834;2024-01-30T09:37:23;63.30;;;41.70;;
57025;SDS011;43961;52.940;6.834;2024-01-30T09:39:49;64.22;;;41.80;;
57025;SDS011;43961;52.940;6.834;2024-01-30T09:42:19;64.93;;;44.45;;
57025;SDS011;43961;52.940;6.834;2024-01-30T09:44:51;63.35;;;41.72;;
57025;SDS011;43961;52.940;6.834;2024-01-30T09:47:18;57.08;;;39.78;;
57025;SDS011;43961;52.940;6.834;2024-01-30T09:49:44;63.72;;;41.83;;
57025;SDS011;43961;52.940;6.834;2024-01-30T09:52:10;65.85;;;45.28;;
57025;SDS011;43961;52.940;6.834;2024-01-30T09:54:36;64.50;;;42.17;;
57025;SDS011;43961;52.940;6.834;2024-01-30T09:57:03;69.18;;;43.50;;
57025;SDS011;43961;52.940;6.834;2024-01-30T09:59:30;66.07;;;43.17;;
57025;SDS011;43961;52.940;6.834;2024-01-30T10:01:56;77.53;;;46.03;;
57025;SDS011;43961;52.940;6.834;2024-01-30T10:04:22;63.20;;;42.58;;
57025;SDS011;43961;52.940;6.834;2024-01-30T10:06:48;74.93;;;41.90;;
57025;SDS011;43961;52.940;6.834;2024-01-30T10:09:14;65.03;;;42.03;;
57025;SDS011;43961;52.940;6.834;2024-01-30T10:11:40;65.60;;;39.70;;
57025;SDS011;43961;52.940;6.834;2024-01-30T10:14:05;64.25;;;39.72;;
57025;SDS011;43961;52.940;6.834;2024-01-30T10:16:31;61.47;;;39.55;;
57025;SDS011;43961;52.940;6.834;2024-01-30T10:18:56;73.30;;;42.25;;
57025;SDS011;43961;52.940;6.834;2024-01-30T10:21:22;70.28;;;41.85;;
57025;SDS011;43961;52.940;6.834;2024-01-30T10:23:49;58.42;;;41.25;;
57025;SDS011;43961;52.940;6.834;2024-01-30T10:26:15;55.97;;;38.40;;
57025;SDS011;43961;52.940;6.834;2024-01-30T10:28:48;60.58;;;39.53;;
57025;SDS011;43961;52.940;6.834;2024-01-30T10:31:17;73.00;;;40.45;;
57025;SDS011;43961;52.940;6.834;2024-01-30T10:33:43;71.82;;;41.08;;
57025;SDS011;43961;52.940;6.834;2024-01-30T10:36:10;68.43;;;40.65;;
57025;SDS011;43961;52.940;6.834;2024-01-30T10:38:40;62.70;;;37.20;;
57025;SDS011;43961;52.940;6.834;2024-01-30T10:41:07;61.75;;;37.80;;
57025;SDS011;43961;52.940;6.834;2024-01-30T10:43:40;52.95;;;36.25;;
57025;SDS011;43961;52.940;6.834;2024-01-30T10:46:20;66.57;;;37.70;;
57025;SDS011;43961;52.940;6.834;2024-01-30T10:48:57;69.20;;;38.13;;
57025;SDS011;43961;52.940;6.834;2024-01-30T10:51:24;61.10;;;37.35;;
57025;SDS011;43961;52.940;6.834;2024-01-30T10:53:54;62.20;;;35.95;;
57025;SDS011;43961;52.940;6.834;2024-01-30T10:56:21;64.35;;;39.60;;
57025;SDS011;43961;52.940;6.834;2024-01-30T10:58:48;63.22;;;36.03;;
57025;SDS011;43961;52.940;6.834;2024-01-30T11:01:16;61.83;;;38.08;;
57025;SDS011;43961;52.940;6.834;2024-01-30T11:03:42;73.45;;;49.13;;
57025;SDS011;43961;52.940;6.834;2024-01-30T11:06:10;62.78;;;43.63;;
57025;SDS011;43961;52.940;6.834;2024-01-30T11:08:39;61.92;;;38.63;;
57025;SDS011;43961;52.940;6.834;2024-01-30T11:11:08;67.70;;;35.75;;
57025;SDS011;43961;52.940;6.834;2024-01-30T11:13:34;74.35;;;38.15;;
57025;SDS011;43961;52.940;6.834;2024-01-30T11:16:03;58.38;;;36.92;;
57025;SDS011;43961;52.940;6.834;2024-01-30T11:18:30;59.58;;;36.53;;
57025;SDS011;43961;52.940;6.834;2024-01-30T11:20:58;63.38;;;35.80;;
57025;SDS011;43961;52.940;6.834;2024-01-30T11:23:27;60.58;;;37.42;;
57025;SDS011;43961;52.940;6.834;2024-01-30T11:25:53;65.95;;;36.05;;
57025;SDS011;43961;52.940;6.834;2024-01-30T11:28:21;55.13;;;35.50;;
57025;SDS011;43961;52.940;6.834;2024-01-30T11:30:47;62.55;;;35.58;;
57025;SDS011;43961;52.940;6.834;2024-01-30T11:35:52;60.58;;;35.53;;
57025;SDS011;43961;52.940;6.834;2024-01-30T11:38:18;56.67;;;36.10;;
57025;SDS011;43961;52.940;6.834;2024-01-30T11:40:44;62.92;;;36.90;;
57025;SDS011;43961;52.940;6.834;2024-01-30T11:43:10;57.25;;;35.00;;
57025;SDS011;43961;52.940;6.834;2024-01-30T11:45:37;63.88;;;37.28;;
57025;SDS011;43961;52.940;6.834;2024-01-30T11:48:04;58.75;;;36.03;;
57025;SDS011;43961;52.940;6.834;2024-01-30T11:50:30;77.60;;;38.47;;
57025;SDS011;43961;52.940;6.834;2024-01-30T11:52:57;58.90;;;37.35;;
57025;SDS011;43961;52.940;6.834;2024-01-30T11:55:24;62.40;;;37.40;;
57025;SDS011;43961;52.940;6.834;2024-01-30T11:57:50;66.53;;;38.13;;
57025;SDS011;43961;52.940;6.834;2024-01-30T12:00:16;67.57;;;37.28;;
57025;SDS011;43961;52.940;6.834;2024-01-30T12:02:43;65.90;;;38.63;;
57025;SDS011;43961;52.940;6.834;2024-01-30T12:05:13;64.43;;;37.25;;
57025;SDS011;43961;52.940;6.834;2024-01-30T12:07:39;69.22;;;40.72;;
57025;SDS011;43961;52.940;6.834;2024-01-30T12:10:05;65.15;;;38.40;;
57025;SDS011;43961;52.940;6.834;2024-01-30T12:12:30;60.95;;;37.88;;
57025;SDS011;43961;52.940;6.834;2024-01-30T12:14:56;71.40;;;38.80;;
57025;SDS011;43961;52.940;6.834;2024-01-30T12:17:23;68.45;;;39.85;;
57025;SDS011;43961;52.940;6.834;2024-01-30T12:20:02;67.32;;;40.38;;
57025;SDS011;43961;52.940;6.834;2024-01-30T12:22:38;61.33;;;39.75;;
57025;SDS011;43961;52.940;6.834;2024-01-30T12:25:11;68.93;;;38.17;;
57025;SDS011;43961;52.940;6.834;2024-01-30T12:27:45;67.68;;;40.42;;
57025;SDS011;43961;52.940;6.834;2024-01-30T12:30:15;59.55;;;38.25;;
57025;SDS011;43961;52.940;6.834;2024-01-30T12:32:42;61.88;;;38.03;;
57025;SDS011;43961;52.940;6.834;2024-01-30T12:35:13;62.88;;;37.33;;
57025;SDS011;43961;52.940;6.834;2024-01-30T12:37:39;50.63;;;36.13;;
57025;SDS011;43961;52.940;6.834;2024-01-30T12:40:09;62.25;;;39.95;;
57025;SDS011;43961;52.940;6.834;2024-01-30T12:42:42;65.22;;;40.17;;
57025;SDS011;43961;52.940;6.834;2024-01-30T12:45:11;62.47;;;39.50;;
57025;SDS011;43961;52.940;6.834;2024-01-30T12:47:36;73.40;;;40.17;;
57025;SDS011;43961;52.940;6.834;2024-01-30T12:50:02;72.28;;;38.28;;
57025;SDS011;43961;52.940;6.834;2024-01-30T12:52:28;64.35;;;33.17;;
57025;SDS011;43961;52.940;6.834;2024-01-30T12:54:54;56.03;;;30.00;;
57025;SDS011;43961;52.940;6.834;2024-01-30T12:57:20;52.35;;;27.73;;
57025;SDS011;43961;52.940;6.834;2024-01-30T12:59:47;48.55;;;23.13;;
57025;SDS011;43961;52.940;6.834;2024-01-30T13:02:13;55.03;;;25.55;;
57025;SDS011;43961;52.940;6.834;2024-01-30T13:04:39;33.63;;;19.92;;
57025;SDS011;43961;52.940;6.834;2024-01-30T13:07:05;41.90;;;19.50;;
57025;SDS011;43961;52.940;6.834;2024-01-30T13:09:30;33.22;;;19.23;;
57025;SDS011;43961;52.940;6.834;2024-01-30T13:11:56;38.35;;;16.85;;
57025;SDS011;43961;52.940;6.834;2024-01-30T13:14:24;24.75;;;15.05;;
57025;SDS011;43961;52.940;6.834;2024-01-30T13:16:49;30.30;;;14.95;;
57025;SDS011;43961;52.940;6.834;2024-01-30T13:19:15;29.20;;;14.45;;
57025;SDS011;43961;52.940;6.834;2024-01-30T13:21:42;28.42;;;14.75;;
57025;SDS011;43961;52.940;6.834;2024-01-30T13:24:08;24.88;;;14.77;;
57025;SDS011;43961;52.940;6.834;2024-01-30T13:26:34;22.38;;;14.40;;
57025;SDS011;43961;52.940;6.834;2024-01-30T13:29:00;30.80;;;16.33;;
57025;SDS011;43961;52.940;6.834;2024-01-30T13:31:26;26.88;;;13.38;;
57025;SDS011;43961;52.940;6.834;2024-01-30T13:33:52;22.73;;;13.05;;
57025;SDS011;43961;52.940;6.834;2024-01-30T13:36:18;27.33;;;13.80;;
57025;SDS011;43961;52.940;6.834;2024-01-30T13:38:44;18.02;;;13.00;;
57025;SDS011;43961;52.940;6.834;2024-01-30T13:41:10;22.05;;;13.85;;
57025;SDS011;43961;52.940;6.834;2024-01-30T13:43:35;22.50;;;13.80;;
57025;SDS011;43961;52.940;6.834;2024-01-30T13:46:01;19.35;;;12.80;;
57025;SDS011;43961;52.940;6.834;2024-01-30T13:48:27;21.20;;;13.73;;
57025;SDS011;43961;52.940;6.834;2024-01-30T13:50:54;22.35;;;14.35;;
57025;SDS011;43961;52.940;6.834;2024-01-30T13:53:20;22.00;;;13.73;;
57025;SDS011;43961;52.940;6.834;2024-01-30T13:55:46;16.95;;;11.57;;
57025;SDS011;43961;52.940;6.834;2024-01-30T13:58:12;26.08;;;10.35;;
57025;SDS011;43961;52.940;6.834;2024-01-30T14:00:37;13.30;;;9.30;;
57025;SDS011;43961;52.940;6.834;2024-01-30T14:03:04;18.23;;;10.23;;
57025;SDS011;43961;52.940;6.834;2024-01-30T14:05:30;20.48;;;10.23;;
57025;SDS011;43961;52.940;6.834;2024-01-30T14:07:56;10.93;;;8.45;;
57025;SDS011;43961;52.940;6.834;2024-01-30T14:10:23;26.02;;;8.50;;
57025;SDS011;43961;52.940;6.834;2024-01-30T14:12:49;13.07;;;9.20;;
57025;SDS011;43961;52.940;6.834;2024-01-30T14:15:14;15.40;;;9.20;;
57025;SDS011;43961;52.940;6.834;2024-01-30T14:17:42;16.45;;;10.13;;
57025;SDS011;43961;52.940;6.834;2024-01-30T14:20:09;16.58;;;10.13;;
57025;SDS011;43961;52.940;6.834;2024-01-30T14:22:35;16.27;;;9.77;;